Genco Predator — V7GK2 — position and weather

sailwx.info

Track history (hours):
 
Tides and Currents Weather Stations Pressure Air Temp Water Temp Dewpoint Dewpoint Depression Visibility Wind Speed Wind Dir Waves Ship Positions

Genco Predator

Last reported at 2017-Oct-14 17:48 UTC. Time now 2017-Oct-17 06:13 UTC.
Position N 27°55' W 016°23'.

Length 190 m; draft 11.5 m.

Type: Cargo ship. MMSI: 538002113.

Date/timePositionNaut miles runAvg speedWind from/ knotsBaromVisibWave heightAir tempDewpointWater temp
2017-Oct-14 17:48N 27°55' W 016°23'1311.5
2017-Oct-14 16:42N 28°05' W 016°15'211.6
2017-Oct-14 16:30N 28°07' W 016°14'811.3
2017-Oct-14 15:47N 28°13' W 016°08'411.3
2017-Oct-14 15:28N 28°16' W 016°06'511.5
2017-Oct-14 15:01N 28°20' W 016°02'611.7
2017-Oct-14 14:30N 28°25' W 015°58'611.8
2017-Oct-14 14:00N 28°29' W 015°53'611.5
2017-Oct-14 13:30N 28°34' W 015°49'611.5
2017-Oct-14 13:00N 28°38' W 015°45'611.1
2017-Oct-14 12:30N 28°43' W 015°42'611.5
2017-Oct-14 12:00N 28°48' W 015°40'611.5
2017-Oct-14 11:30N 28°54' W 015°38'611.7
2017-Oct-14 11:00N 28°60' W 015°37'611.8
2017-Oct-14 10:30N 29°05' W 015°35'612.0
2017-Oct-14 10:01N 29°11' W 015°34'612.0
2017-Oct-14 09:31N 29°17' W 015°32'612.5
2017-Oct-14 09:01N 29°23' W 015°31'713.1
2017-Oct-14 08:30N 29°30' W 015°29'612.4
2017-Oct-14 08:01N 29°36' W 015°26'611.9
2017-Oct-14 07:30N 29°41' W 015°24'612.0
2017-Oct-14 07:00N 29°47' W 015°22'611.7
2017-Oct-14 06:31N 29°52' W 015°20'611.7
2017-Oct-14 06:01N 29°58' W 015°19'611.8
2017-Oct-14 05:30N 30°04' W 015°17'612.0
2017-Oct-14 05:00N 30°10' W 015°15'911.8
2017-Oct-14 04:12N 30°19' W 015°12'311.9
2017-Oct-14 03:58N 30°21' W 015°11'1611.9
2017-Oct-14 02:38N 30°37' W 015°06'212.0
2017-Oct-14 02:30N 30°38' W 015°06'611.9
2017-Oct-14 02:00N 30°44' W 015°04'611.8
2017-Oct-14 01:30N 30°50' W 015°02'611.8
2017-Oct-14 01:00N 30°55' W 015°00'611.7
2017-Oct-14 00:30N 31°01' W 014°59'611.8
2017-Oct-14 00:00N 31°07' W 014°57'611.8
2017-Oct-13 23:30N 31°12' W 014°55'611.9
2017-Oct-13 23:00N 31°18' W 014°54'611.9
2017-Oct-13 22:30N 31°24' W 014°52'912.0
2017-Oct-13 21:44N 31°33' W 014°49'512.1
2017-Oct-13 21:18N 31°38' W 014°47'412.0
2017-Oct-13 20:57N 31°42' W 014°46'2912.0
2017-Oct-13 18:35N 32°10' W 014°37'112.1
2017-Oct-13 18:30N 32°10' W 014°37'612.2
2017-Oct-13 17:59N 32°17' W 014°35'612.1
2017-Oct-13 17:29N 32°22' W 014°33'612.1
2017-Oct-13 17:01N 32°28' W 014°31'1411.8
2017-Oct-13 15:52N 32°41' W 014°27'1111.9
2017-Oct-13 14:53N 32°52' W 014°24'611.8
2017-Oct-13 14:22N 32°58' W 014°22'711.7
2017-Oct-13 13:46N 33°05' W 014°20'311.9
2017-Oct-13 13:30N 33°08' W 014°19'611.8
2017-Oct-13 13:00N 33°14' W 014°17'2011.5
2017-Oct-13 11:14N 33°33' W 014°10'211.2
2017-Oct-13 11:01N 33°36' W 014°09'611.3
2017-Oct-13 10:30N 33°41' W 014°07'611.9
2017-Oct-13 10:00N 33°47' W 014°06'611.9
2017-Oct-13 09:30N 33°53' W 014°04'30311.8
2017-Oct-12 07:47N 38°43' W 012°16'311.7
2017-Oct-12 07:30N 38°46' W 012°14'611.9
2017-Oct-12 07:00N 38°51' W 012°11'612.1
2017-Oct-12 06:30N 38°57' W 012°09'611.9
2017-Oct-12 05:58N 39°03' W 012°06'511.6
2017-Oct-12 05:30N 39°08' W 012°03'611.5
2017-Oct-12 05:00N 39°13' W 012°01'611.4
2017-Oct-12 04:30N 39°19' W 011°58'611.7
2017-Oct-12 04:00N 39°24' W 011°55'1511.8
2017-Oct-12 02:46N 39°37' W 011°47'1011.6
2017-Oct-12 01:54N 39°46' W 011°42'511.8
2017-Oct-12 01:30N 39°51' W 011°39'812.1
2017-Oct-12 00:48N 39°59' W 011°35'611.7
2017-Oct-12 00:19N 40°04' W 011°33'411.6
2017-Oct-11 23:57N 40°08' W 011°31'1211.8
2017-Oct-11 22:58N 40°19' W 011°25'712.1
2017-Oct-11 22:22N 40°26' W 011°22'612.2
2017-Oct-11 21:53N 40°31' W 011°19'612.3
2017-Oct-11 21:26N 40°36' W 011°16'54711.7
2017-Oct-09 22:32N 48°52' W 005°50'612.4
2017-Oct-09 22:02N 48°56' W 005°42'112.5
2017-Oct-09 21:58N 48°56' W 005°41'1312.1
2017-Oct-09 20:52N 49°03' W 005°24'511.3
2017-Oct-09 20:27N 49°06' W 005°18'511.0
2017-Oct-09 19:59N 49°08' W 005°11'610.6
2017-Oct-09 19:23N 49°12' W 005°03'410.4
2017-Oct-09 19:00N 49°14' W 004°58'610.3
2017-Oct-09 18:25N 49°18' W 004°51'610.5
2017-Oct-09 17:53N 49°21' W 004°43'710.6
2017-Oct-09 17:14N 49°24' W 004°35'410.7
2017-Oct-09 16:53N 49°26' W 004°30'1611.6
2017-Oct-09 15:29N 49°35' W 004°09'712.5
2017-Oct-09 14:54N 49°39' W 003°59'512.9
2017-Oct-09 14:29N 49°42' W 003°52'712.9
2017-Oct-09 13:59N 49°46' W 003°44'612.8
2017-Oct-09 13:30N 49°49' W 003°36'612.5
2017-Oct-09 13:01N 49°52' W 003°28'612.1
2017-Oct-09 12:31N 49°55' W 003°20'611.8
2017-Oct-09 12:01N 49°57' W 003°11'611.8
2017-Oct-09 11:30N 49°58' W 003°02'611.1
2017-Oct-09 11:01N 49°60' W 002°53'510.2
2017-Oct-09 10:30N 50°01' W 002°46'5 9.4
2017-Oct-09 10:00N 50°02' W 002°39'8211.9
2017-Oct-09 03:04N 50°25' W 000°35'113.8
2017-Oct-09 03:00N 50°25' W 000°34'713.5
2017-Oct-09 02:30N 50°27' W 000°24'712.8
2017-Oct-09 02:00N 50°29' W 000°14'612.1
2017-Oct-09 01:30N 50°31' W 000°05'611.4
2017-Oct-09 00:59N 50°32' E 000°04'510.8
2017-Oct-09 00:30N 50°33' E 000°12'510.2
2017-Oct-09 00:00N 50°35' E 000°20'5 9.6
2017-Oct-08 23:30N 50°36' E 000°27'5 9.4
2017-Oct-08 23:00N 50°38' E 000°34'5 9.6
2017-Oct-08 22:30N 50°40' E 000°40'510.1
2017-Oct-08 22:00N 50°43' E 000°47'611.0
2017-Oct-08 21:30N 50°47' E 000°54'612.2
2017-Oct-08 21:00N 50°50' E 001°02'713.2
2017-Oct-08 20:30N 50°55' E 001°09'713.9
2017-Oct-08 20:00N 50°59' E 001°18'714.0
2017-Oct-08 19:30N 51°03' E 001°27'713.4
2017-Oct-08 19:00N 51°08' E 001°35'612.5
2017-Oct-08 18:30N 51°12' E 001°42'611.6
2017-Oct-08 18:00N 51°16' E 001°48'511.0
2017-Oct-08 17:30N 51°22' E 001°51'510.2
2017-Oct-08 17:00N 51°26' E 001°54'510.0
2017-Oct-08 16:30N 51°30' E 001°59'5 9.8
2017-Oct-08 16:00N 51°34' E 002°05'5 9.6
2017-Oct-08 15:30N 51°37' E 002°11'5 9.5
2017-Oct-08 14:59N 51°40' E 002°16'25411.1
2017-Oct-07 16:05N 55°18' E 005°55'110.7
2017-Oct-07 15:58N 55°19' E 005°56'510.5
2017-Oct-07 15:30N 55°23' E 006°01'510.5
2017-Oct-07 15:00N 55°28' E 006°06'510.5
2017-Oct-07 14:30N 55°32' E 006°11'182 9.6
2017-Oct-06 19:31N 57°47' E 009°54'011.2
2017-Oct-06 19:30N 57°47' E 009°55'511.0
2017-Oct-06 19:00N 57°48' E 010°05'510.2
2017-Oct-06 18:30N 57°48' E 010°14'510.2
2017-Oct-06 17:58N 57°48' E 010°24'510.6
2017-Oct-06 17:30N 57°48' E 010°34'5 9.9
2017-Oct-06 17:00N 57°48' E 010°43'5 9.9
2017-Oct-06 16:30N 57°45' E 010°50'510.6
2017-Oct-06 16:00N 57°42' E 010°58'510.6
2017-Oct-06 15:29N 57°38' E 011°06'510.6
2017-Oct-06 15:00N 57°35' E 011°13'510.7
2017-Oct-06 14:30N 57°31' E 011°20'510.3
2017-Oct-06 14:00N 57°28' E 011°27'510.3
2017-Oct-06 13:30N 57°23' E 011°29'510.4
2017-Oct-06 13:00N 57°18' E 011°33'510.4
2017-Oct-06 12:30N 57°13' E 011°36'610.6
2017-Oct-06 11:59N 57°08' E 011°39'611.1
2017-Oct-06 11:27N 57°02' E 011°42'1210.9
2017-Oct-06 10:23N 56°51' E 011°50'94 9.9
2017-Oct-06 00:54N 55°21' E 011°03'810.7
2017-Oct-06 00:10N 55°13' E 011°06'210.9
2017-Oct-06 00:00N 55°12' E 011°05'511.0
2017-Oct-05 23:30N 55°07' E 010°59'511.0
2017-Oct-05 23:00N 55°02' E 010°60'510.2
2017-Oct-05 22:30N 54°57' E 010°55'510.4
2017-Oct-05 22:00N 54°53' E 010°51'510.0
2017-Oct-05 21:30N 54°48' E 010°50'510.5
2017-Oct-05 21:00N 54°43' E 010°47'4 7.7
2017-Oct-05 20:30N 54°40' E 010°50'510.9
2017-Oct-05 20:00N 54°37' E 010°58'510.6
2017-Oct-05 19:30N 54°36' E 011°07'510.7
2017-Oct-05 19:00N 54°34' E 011°16'510.9
2017-Oct-05 18:30N 54°32' E 011°24'510.4
2017-Oct-05 18:00N 54°30' E 011°33'5 9.9
2017-Oct-05 17:30N 54°28' E 011°40'510.3
2017-Oct-05 17:00N 54°27' E 011°49'14 9.5
2017-Oct-05 15:29N 54°30' E 012°13'611.6
2017-Oct-05 14:58N 54°36' E 012°17'611.9
2017-Oct-05 14:30N 54°39' E 012°24'4611.3
2017-Oct-05 10:26N 54°58' E 013°37'511.1
2017-Oct-05 09:58N 55°00' E 013°46'1011.0
2017-Oct-05 09:03N 55°04' E 014°02'310.4
2017-Oct-05 08:45N 55°05' E 014°06'310.9
2017-Oct-05 08:27N 55°08' E 014°10'511.0
2017-Oct-05 08:00N 55°12' E 014°16'510.9
2017-Oct-05 07:30N 55°16' E 014°21'510.7
2017-Oct-05 07:00N 55°20' E 014°27'510.7
2017-Oct-05 06:30N 55°24' E 014°33'510.3
2017-Oct-05 06:00N 55°28' E 014°40'510.4
2017-Oct-05 05:30N 55°30' E 014°48'610.3
2017-Oct-05 04:53N 55°33' E 014°58'410.1
2017-Oct-05 04:30N 55°35' E 015°04'510.1
2017-Oct-05 04:00N 55°38' E 015°11'510.0
2017-Oct-05 03:30N 55°40' E 015°19'5 9.9
2017-Oct-05 03:00N 55°43' E 015°27'510.0
2017-Oct-05 02:30N 55°45' E 015°34'5 9.9
2017-Oct-05 02:00N 55°48' E 015°42'5 9.9
2017-Oct-05 01:30N 55°50' E 015°49'5 9.6
2017-Oct-05 01:00N 55°53' E 015°57'5 9.5
2017-Oct-05 00:30N 55°55' E 016°04'5 9.4
2017-Oct-05 00:00N 55°58' E 016°11'5 9.3
2017-Oct-04 23:30N 55°60' E 016°19'5 9.4
2017-Oct-04 23:00N 56°02' E 016°26'5 9.7
2017-Oct-04 22:30N 56°05' E 016°33'5 9.8
2017-Oct-04 22:00N 56°07' E 016°41'510.0
2017-Oct-04 21:30N 56°10' E 016°49'  
Track history (hours):
 
Tides and Currents Weather Stations Pressure Air Temp Water Temp Dewpoint Dewpoint Depression Visibility Wind Speed Wind Dir Waves Ship Positions

Genco Predator

Last reported at 2017-Oct-14 17:48 UTC. Time now 2017-Oct-17 06:13 UTC.
Position N 27°55' W 016°23'.

Length 190 m; draft 11.5 m.

Type: Cargo ship. MMSI: 538002113.

Date/timePositionNaut miles runAvg speedWind from/ knotsBaromVisibWave heightAir tempDewpointWater temp
2017-Oct-14 17:48N 27°55' W 016°23'1311.5
2017-Oct-14 16:42N 28°05' W 016°15'211.6
2017-Oct-14 16:30N 28°07' W 016°14'811.3
2017-Oct-14 15:47N 28°13' W 016°08'411.3
2017-Oct-14 15:28N 28°16' W 016°06'511.5
2017-Oct-14 15:01N 28°20' W 016°02'611.7
2017-Oct-14 14:30N 28°25' W 015°58'611.8
2017-Oct-14 14:00N 28°29' W 015°53'611.5
2017-Oct-14 13:30N 28°34' W 015°49'611.5
2017-Oct-14 13:00N 28°38' W 015°45'611.1
2017-Oct-14 12:30N 28°43' W 015°42'611.5
2017-Oct-14 12:00N 28°48' W 015°40'611.5
2017-Oct-14 11:30N 28°54' W 015°38'611.7
2017-Oct-14 11:00N 28°60' W 015°37'611.8
2017-Oct-14 10:30N 29°05' W 015°35'612.0
2017-Oct-14 10:01N 29°11' W 015°34'612.0
2017-Oct-14 09:31N 29°17' W 015°32'612.5
2017-Oct-14 09:01N 29°23' W 015°31'713.1
2017-Oct-14 08:30N 29°30' W 015°29'612.4
2017-Oct-14 08:01N 29°36' W 015°26'611.9
2017-Oct-14 07:30N 29°41' W 015°24'612.0
2017-Oct-14 07:00N 29°47' W 015°22'611.7
2017-Oct-14 06:31N 29°52' W 015°20'611.7
2017-Oct-14 06:01N 29°58' W 015°19'611.8
2017-Oct-14 05:30N 30°04' W 015°17'612.0
2017-Oct-14 05:00N 30°10' W 015°15'911.8
2017-Oct-14 04:12N 30°19' W 015°12'311.9
2017-Oct-14 03:58N 30°21' W 015°11'1611.9
2017-Oct-14 02:38N 30°37' W 015°06'212.0
2017-Oct-14 02:30N 30°38' W 015°06'611.9
2017-Oct-14 02:00N 30°44' W 015°04'611.8
2017-Oct-14 01:30N 30°50' W 015°02'611.8
2017-Oct-14 01:00N 30°55' W 015°00'611.7
2017-Oct-14 00:30N 31°01' W 014°59'611.8
2017-Oct-14 00:00N 31°07' W 014°57'611.8
2017-Oct-13 23:30N 31°12' W 014°55'611.9
2017-Oct-13 23:00N 31°18' W 014°54'611.9
2017-Oct-13 22:30N 31°24' W 014°52'912.0
2017-Oct-13 21:44N 31°33' W 014°49'512.1
2017-Oct-13 21:18N 31°38' W 014°47'412.0
2017-Oct-13 20:57N 31°42' W 014°46'2912.0
2017-Oct-13 18:35N 32°10' W 014°37'112.1
2017-Oct-13 18:30N 32°10' W 014°37'612.2
2017-Oct-13 17:59N 32°17' W 014°35'612.1
2017-Oct-13 17:29N 32°22' W 014°33'612.1
2017-Oct-13 17:01N 32°28' W 014°31'1411.8
2017-Oct-13 15:52N 32°41' W 014°27'1111.9
2017-Oct-13 14:53N 32°52' W 014°24'611.8
2017-Oct-13 14:22N 32°58' W 014°22'711.7
2017-Oct-13 13:46N 33°05' W 014°20'311.9
2017-Oct-13 13:30N 33°08' W 014°19'611.8
2017-Oct-13 13:00N 33°14' W 014°17'2011.5
2017-Oct-13 11:14N 33°33' W 014°10'211.2
2017-Oct-13 11:01N 33°36' W 014°09'611.3
2017-Oct-13 10:30N 33°41' W 014°07'611.9
2017-Oct-13 10:00N 33°47' W 014°06'611.9
2017-Oct-13 09:30N 33°53' W 014°04'30311.8
2017-Oct-12 07:47N 38°43' W 012°16'311.7
2017-Oct-12 07:30N 38°46' W 012°14'611.9
2017-Oct-12 07:00N 38°51' W 012°11'612.1
2017-Oct-12 06:30N 38°57' W 012°09'611.9
2017-Oct-12 05:58N 39°03' W 012°06'511.6
2017-Oct-12 05:30N 39°08' W 012°03'611.5
2017-Oct-12 05:00N 39°13' W 012°01'611.4
2017-Oct-12 04:30N 39°19' W 011°58'611.7
2017-Oct-12 04:00N 39°24' W 011°55'1511.8
2017-Oct-12 02:46N 39°37' W 011°47'1011.6
2017-Oct-12 01:54N 39°46' W 011°42'511.8
2017-Oct-12 01:30N 39°51' W 011°39'812.1
2017-Oct-12 00:48N 39°59' W 011°35'611.7
2017-Oct-12 00:19N 40°04' W 011°33'411.6
2017-Oct-11 23:57N 40°08' W 011°31'1211.8
2017-Oct-11 22:58N 40°19' W 011°25'712.1
2017-Oct-11 22:22N 40°26' W 011°22'612.2
2017-Oct-11 21:53N 40°31' W 011°19'612.3
2017-Oct-11 21:26N 40°36' W 011°16'54711.7
2017-Oct-09 22:32N 48°52' W 005°50'612.4
2017-Oct-09 22:02N 48°56' W 005°42'112.5
2017-Oct-09 21:58N 48°56' W 005°41'1312.1
2017-Oct-09 20:52N 49°03' W 005°24'511.3
2017-Oct-09 20:27N 49°06' W 005°18'511.0
2017-Oct-09 19:59N 49°08' W 005°11'610.6
2017-Oct-09 19:23N 49°12' W 005°03'410.4
2017-Oct-09 19:00N 49°14' W 004°58'610.3
2017-Oct-09 18:25N 49°18' W 004°51'610.5
2017-Oct-09 17:53N 49°21' W 004°43'710.6
2017-Oct-09 17:14N 49°24' W 004°35'410.7
2017-Oct-09 16:53N 49°26' W 004°30'1611.6
2017-Oct-09 15:29N 49°35' W 004°09'712.5
2017-Oct-09 14:54N 49°39' W 003°59'512.9
2017-Oct-09 14:29N 49°42' W 003°52'712.9
2017-Oct-09 13:59N 49°46' W 003°44'612.8
2017-Oct-09 13:30N 49°49' W 003°36'612.5
2017-Oct-09 13:01N 49°52' W 003°28'612.1
2017-Oct-09 12:31N 49°55' W 003°20'611.8
2017-Oct-09 12:01N 49°57' W 003°11'611.8
2017-Oct-09 11:30N 49°58' W 003°02'611.1
2017-Oct-09 11:01N 49°60' W 002°53'510.2
2017-Oct-09 10:30N 50°01' W 002°46'5 9.4
2017-Oct-09 10:00N 50°02' W 002°39'8211.9
2017-Oct-09 03:04N 50°25' W 000°35'113.8
2017-Oct-09 03:00N 50°25' W 000°34'713.5
2017-Oct-09 02:30N 50°27' W 000°24'712.8
2017-Oct-09 02:00N 50°29' W 000°14'612.1
2017-Oct-09 01:30N 50°31' W 000°05'611.4
2017-Oct-09 00:59N 50°32' E 000°04'510.8
2017-Oct-09 00:30N 50°33' E 000°12'510.2
2017-Oct-09 00:00N 50°35' E 000°20'5 9.6
2017-Oct-08 23:30N 50°36' E 000°27'5 9.4
2017-Oct-08 23:00N 50°38' E 000°34'5 9.6
2017-Oct-08 22:30N 50°40' E 000°40'510.1
2017-Oct-08 22:00N 50°43' E 000°47'611.0
2017-Oct-08 21:30N 50°47' E 000°54'612.2
2017-Oct-08 21:00N 50°50' E 001°02'713.2
2017-Oct-08 20:30N 50°55' E 001°09'713.9
2017-Oct-08 20:00N 50°59' E 001°18'714.0
2017-Oct-08 19:30N 51°03' E 001°27'713.4
2017-Oct-08 19:00N 51°08' E 001°35'612.5
2017-Oct-08 18:30N 51°12' E 001°42'611.6
2017-Oct-08 18:00N 51°16' E 001°48'511.0
2017-Oct-08 17:30N 51°22' E 001°51'510.2
2017-Oct-08 17:00N 51°26' E 001°54'510.0
2017-Oct-08 16:30N 51°30' E 001°59'5 9.8
2017-Oct-08 16:00N 51°34' E 002°05'5 9.6
2017-Oct-08 15:30N 51°37' E 002°11'5 9.5
2017-Oct-08 14:59N 51°40' E 002°16'25411.1
2017-Oct-07 16:05N 55°18' E 005°55'110.7
2017-Oct-07 15:58N 55°19' E 005°56'510.5
2017-Oct-07 15:30N 55°23' E 006°01'510.5
2017-Oct-07 15:00N 55°28' E 006°06'510.5
2017-Oct-07 14:30N 55°32' E 006°11'182 9.6
2017-Oct-06 19:31N 57°47' E 009°54'011.2
2017-Oct-06 19:30N 57°47' E 009°55'511.0
2017-Oct-06 19:00N 57°48' E 010°05'510.2
2017-Oct-06 18:30N 57°48' E 010°14'510.2
2017-Oct-06 17:58N 57°48' E 010°24'510.6
2017-Oct-06 17:30N 57°48' E 010°34'5 9.9
2017-Oct-06 17:00N 57°48' E 010°43'5 9.9
2017-Oct-06 16:30N 57°45' E 010°50'510.6
2017-Oct-06 16:00N 57°42' E 010°58'510.6
2017-Oct-06 15:29N 57°38' E 011°06'510.6
2017-Oct-06 15:00N 57°35' E 011°13'510.7
2017-Oct-06 14:30N 57°31' E 011°20'510.3
2017-Oct-06 14:00N 57°28' E 011°27'510.3
2017-Oct-06 13:30N 57°23' E 011°29'510.4
2017-Oct-06 13:00N 57°18' E 011°33'510.4
2017-Oct-06 12:30N 57°13' E 011°36'610.6
2017-Oct-06 11:59N 57°08' E 011°39'611.1
2017-Oct-06 11:27N 57°02' E 011°42'1210.9
2017-Oct-06 10:23N 56°51' E 011°50'94 9.9
2017-Oct-06 00:54N 55°21' E 011°03'810.7
2017-Oct-06 00:10N 55°13' E 011°06'210.9
2017-Oct-06 00:00N 55°12' E 011°05'511.0
2017-Oct-05 23:30N 55°07' E 010°59'511.0
2017-Oct-05 23:00N 55°02' E 010°60'510.2
2017-Oct-05 22:30N 54°57' E 010°55'510.4
2017-Oct-05 22:00N 54°53' E 010°51'510.0
2017-Oct-05 21:30N 54°48' E 010°50'510.5
2017-Oct-05 21:00N 54°43' E 010°47'4 7.7
2017-Oct-05 20:30N 54°40' E 010°50'510.9
2017-Oct-05 20:00N 54°37' E 010°58'510.6
2017-Oct-05 19:30N 54°36' E 011°07'510.7
2017-Oct-05 19:00N 54°34' E 011°16'510.9
2017-Oct-05 18:30N 54°32' E 011°24'510.4
2017-Oct-05 18:00N 54°30' E 011°33'5 9.9
2017-Oct-05 17:30N 54°28' E 011°40'510.3
2017-Oct-05 17:00N 54°27' E 011°49'14 9.5
2017-Oct-05 15:29N 54°30' E 012°13'611.6
2017-Oct-05 14:58N 54°36' E 012°17'611.9
2017-Oct-05 14:30N 54°39' E 012°24'4611.3
2017-Oct-05 10:26N 54°58' E 013°37'511.1
2017-Oct-05 09:58N 55°00' E 013°46'1011.0
2017-Oct-05 09:03N 55°04' E 014°02'310.4
2017-Oct-05 08:45N 55°05' E 014°06'310.9
2017-Oct-05 08:27N 55°08' E 014°10'511.0
2017-Oct-05 08:00N 55°12' E 014°16'510.9
2017-Oct-05 07:30N 55°16' E 014°21'510.7
2017-Oct-05 07:00N 55°20' E 014°27'510.7
2017-Oct-05 06:30N 55°24' E 014°33'510.3
2017-Oct-05 06:00N 55°28' E 014°40'510.4
2017-Oct-05 05:30N 55°30' E 014°48'610.3
2017-Oct-05 04:53N 55°33' E 014°58'410.1
2017-Oct-05 04:30N 55°35' E 015°04'510.1
2017-Oct-05 04:00N 55°38' E 015°11'510.0
2017-Oct-05 03:30N 55°40' E 015°19'5 9.9
2017-Oct-05 03:00N 55°43' E 015°27'510.0
2017-Oct-05 02:30N 55°45' E 015°34'5 9.9
2017-Oct-05 02:00N 55°48' E 015°42'5 9.9
2017-Oct-05 01:30N 55°50' E 015°49'5 9.6
2017-Oct-05 01:00N 55°53' E 015°57'5 9.5
2017-Oct-05 00:30N 55°55' E 016°04'5 9.4
2017-Oct-05 00:00N 55°58' E 016°11'5 9.3
2017-Oct-04 23:30N 55°60' E 016°19'5 9.4
2017-Oct-04 23:00N 56°02' E 016°26'5 9.7
2017-Oct-04 22:30N 56°05' E 016°33'5 9.8
2017-Oct-04 22:00N 56°07' E 016°41'510.0
2017-Oct-04 21:30N 56°10' E 016°49'  

Dump ship's entire track history